Aromas, California
Current Conditions -  °F | °C
As of 3:53 PM on Friday 24 Oct 2014 (Local Time) from KWVI Reporting Station
Broken Clouds Broken Clouds  
Wind Chill: 67°   Ceiling: 1600
Heat Index: 67°   Visibility: 10mi
Dew Point: 57°   Wind: 9mph
Humidity: 70%   Direction: 260°W
Pressure: 29.95"   Gusts: 18mph
Location:  36.88°N, 121.64°W
Report Text: KWVI 242253Z AUTO 26008G16KT 10SM BKN016 19/14 A2995 RMK AO2 SLP140 T01940139
Loading
Personal Weather Stations






























Interactive Weather Map New forecast layout! Learn more

10-Day Weather Forecast

Advertisements
Track Severe Weather on mobile